Time;durP1;ratioP1;P1;durP2;ratioP2;P2;SDS_P1;SDS_P2;PMS_P1;PMS_P2;Temp;Humidity;BMP_temperature;BMP_pressure;BME280_temperature;BME280_humidity;BME280_pressure;Samples;Min_cycle;Max_cycle;Signal;HPM_P1;HPM_P2
2021/01/20 00:00:29;;;;;;;0.35;0.35;;;-0.40;99.90;;;;;;5045018;28;20209;-71
2021/01/20 00:02:55;;;;;;;0.40;0.40;;;-0.30;99.90;;;;;;5029926;28;20292;-74
2021/01/20 00:05:21;;;;;;;1.05;0.98;;;-0.30;99.90;;;;;;5029942;28;20166;-71
2021/01/20 00:07:47;;;;;;;1.52;1.42;;;-0.30;99.90;;;;;;5045028;28;20205;-71
2021/01/20 00:10:15;;;;;;;1.60;1.50;;;-0.40;99.90;;;;;;5029653;28;20194;-72
2021/01/20 00:12:44;;;;;;;0.73;0.73;;;-0.40;99.90;;;;;;5029852;28;20162;-72
2021/01/20 00:15:12;;;;;;;0.90;0.73;;;-0.40;99.90;;;;;;5029596;28;20185;-71
2021/01/20 00:17:38;;;;;;;1.17;1.17;;;-0.50;99.90;;;;;;5029590;28;20185;-72
2021/01/20 00:20:07;;;;;;;1.58;1.55;;;-0.50;99.90;;;;;;5044684;28;20213;-72
2021/01/20 00:22:33;;;;;;;1.50;1.40;;;-0.50;99.90;;;;;;5028075;28;20172;-73
2021/01/20 00:24:59;;;;;;;1.13;1.08;;;-0.50;99.90;;;;;;5029431;28;20194;-72
2021/01/20 00:27:25;;;;;;;0.10;0.10;;;-0.60;99.90;;;;;;5029367;28;20235;-72
2021/01/20 00:29:51;;;;;;;0.60;0.60;;;-0.60;99.90;;;;;;5029307;28;20257;-73
2021/01/20 00:32:16;;;;;;;0.55;0.55;;;-0.50;99.90;;;;;;5028016;28;20268;-72
2021/01/20 00:34:42;;;;;;;0.52;0.52;;;-0.50;99.90;;;;;;5029278;28;20166;-72
2021/01/20 00:37:08;;;;;;;0.45;0.45;;;-0.30;99.90;;;;;;5029292;28;20205;-72
2021/01/20 00:39:34;;;;;;;1.48;1.20;;;-0.30;99.90;;;;;;5027680;28;20222;-72
2021/01/20 00:42:00;;;;;;;0.20;0.20;;;-0.30;99.90;;;;;;5028986;28;20244;-72
2021/01/20 00:44:27;;;;;;;1.50;1.40;;;-0.20;99.90;;;;;;5027774;28;20197;-72
2021/01/20 00:46:53;;;;;;;0.90;0.43;;;-0.20;99.90;;;;;;5028957;28;20234;-72
2021/01/20 00:49:19;;;;;;;1.48;1.38;;;-0.30;99.90;;;;;;5028919;28;20202;-72
2021/01/20 00:51:44;;;;;;;0.43;0.40;;;-0.30;99.90;;;;;;5028988;28;20162;-72
2021/01/20 00:54:10;;;;;;;1.10;1.10;;;-0.40;99.90;;;;;;5028855;28;20170;-72
2021/01/20 00:56:36;;;;;;;1.17;1.17;;;-0.40;99.90;;;;;;5043449;28;20205;-72
2021/01/20 00:59:02;;;;;;;1.77;1.67;;;-0.40;99.90;;;;;;5028789;28;20198;-72
2021/01/20 01:01:28;;;;;;;0.70;0.70;;;-0.50;99.90;;;;;;5028875;28;20222;-72
2021/01/20 01:03:54;;;;;;;1.02;1.02;;;-0.60;99.90;;;;;;5043956;28;20170;-72
2021/01/20 01:06:20;;;;;;;1.25;1.20;;;-0.60;99.90;;;;;;5028766;28;20162;-73
2021/01/20 01:08:46;;;;;;;4.82;2.88;;;-0.60;99.90;;;;;;5028643;28;20280;-73
2021/01/20 01:11:12;;;;;;;0.88;0.82;;;-0.60;99.90;;;;;;5028562;28;20163;-72
2021/01/20 01:13:37;;;;;;;1.67;1.58;;;-0.60;99.90;;;;;;5043823;28;20261;-72
2021/01/20 01:16:04;;;;;;;1.02;1.02;;;-0.60;99.90;;;;;;5028586;28;20173;-72
2021/01/20 01:18:29;;;;;;;2.85;2.45;;;-0.60;99.90;;;;;;5028524;28;20189;-72
2021/01/20 01:20:55;;;;;;;4.03;3.78;;;-0.50;99.90;;;;;;5027105;28;20196;-73
2021/01/20 01:23:21;;;;;;;0.60;0.60;;;-0.50;99.90;;;;;;5027039;28;20177;-72
2021/01/20 01:25:47;;;;;;;1.33;1.23;;;-0.70;99.90;;;;;;5026921;28;20181;-72
2021/01/20 01:28:14;;;;;;;0.10;0.10;;;-0.80;99.90;;;;;;5028424;28;20190;-72
2021/01/20 01:30:41;;;;;;;0.32;0.32;;;-0.90;99.90;;;;;;5027155;28;20217;-72
2021/01/20 01:33:07;;;;;;;3.55;3.38;;;-1.00;99.90;;;;;;5028378;28;20158;-73
2021/01/20 01:35:33;;;;;;;2.05;1.55;;;-1.00;99.90;;;;;;5026830;28;20200;-72
2021/01/20 01:38:00;;;;;;;0.85;0.85;;;-1.00;99.90;;;;;;5028359;28;20189;-72
2021/01/20 01:40:26;;;;;;;0.85;0.85;;;-1.00;99.90;;;;;;5028200;28;20757;-72
2021/01/20 01:42:52;;;;;;;0.43;0.43;;;-1.00;99.90;;;;;;5026689;28;20236;-74
2021/01/20 01:45:18;;;;;;;2.70;1.45;;;-1.00;99.90;;;;;;5028344;28;20316;-73
2021/01/20 01:47:45;;;;;;;0.73;0.73;;;-1.00;99.90;;;;;;5026858;28;20186;-73
2021/01/20 01:50:12;;;;;;;0.40;0.40;;;-0.90;99.90;;;;;;5028023;28;20276;-73
2021/01/20 01:52:39;;;;;;;1.02;1.02;;;-1.00;99.90;;;;;;5028312;28;20162;-73
2021/01/20 01:55:09;;;;;;;0.82;0.82;;;-1.10;99.90;;;;;;5028087;28;20253;-72
2021/01/20 01:57:40;;;;;;;0.93;0.93;;;-1.10;99.90;;;;;;5028103;28;20182;-73
2021/01/20 02:00:08;;;;;;;0.52;0.52;;;-1.10;99.90;;;;;;5027870;28;20181;-73
2021/01/20 02:02:35;;;;;;;1.88;1.77;;;-1.00;99.90;;;;;;5028087;28;20154;-73
2021/01/20 02:05:01;;;;;;;1.27;1.27;;;-1.00;99.90;;;;;;5028125;28;20197;-73
2021/01/20 02:07:28;;;;;;;0.20;0.20;;;-1.00;99.90;;;;;;5028894;28;20166;-73
2021/01/20 02:09:56;;;;;;;0.98;0.90;;;-0.80;99.90;;;;;;5032646;28;20555;-73
2021/01/20 02:12:25;;;;;;;2.38;2.17;;;-0.80;99.90;;;;;;5032361;28;20311;-73
2021/01/20 02:15:17;;;;;;;0.25;0.25;;;-0.80;99.90;;;;;;5030850;28;20201;-73
2021/01/20 02:17:52;;;;;;;1.70;1.60;;;-0.80;99.90;;;;;;5031822;28;20236;-73
2021/01/20 02:20:30;;;;;;;0.50;0.50;;;-0.80;99.90;;;;;;5031784;28;20614;-72
2021/01/20 02:23:04;;;;;;;2.47;2.35;;;-0.90;99.90;;;;;;5030545;28;20161;-72
2021/01/20 02:25:33;;;;;;;0.73;0.73;;;-0.90;99.90;;;;;;5030271;28;20198;-72
2021/01/20 02:28:18;;;;;;;1.00;0.95;;;-0.90;99.90;;;;;;5030401;28;20642;-73
2021/01/20 02:30:46;;;;;;;1.33;1.33;;;-0.80;99.90;;;;;;5030165;28;20201;-74
2021/01/20 02:33:22;;;;;;;2.58;2.33;;;-0.70;99.90;;;;;;5030394;28;20608;-73
2021/01/20 02:35:55;;;;;;;0.68;0.68;;;-0.70;99.90;;;;;;5030131;28;20202;-73
2021/01/20 02:38:24;;;;;;;2.38;1.30;;;-0.80;99.90;;;;;;5030003;28;20201;-73
2021/01/20 02:40:50;;;;;;;0.20;0.20;;;-0.90;99.90;;;;;;5030105;28;20273;-72
2021/01/20 02:43:26;;;;;;;2.88;2.35;;;-0.90;99.90;;;;;;5031307;28;20622;-73
2021/01/20 02:45:52;;;;;;;1.85;1.75;;;-1.00;99.90;;;;;;5031307;28;20257;-72
2021/01/20 02:48:19;;;;;;;1.10;1.10;;;-1.00;99.90;;;;;;5031327;28;20186;-74
2021/01/20 02:50:46;;;;;;;0.30;0.30;;;-1.00;99.90;;;;;;5031203;28;20177;-73
2021/01/20 02:53:18;;;;;;;0.63;0.63;;;-1.00;99.90;;;;;;5031342;28;20660;-72
2021/01/20 02:55:49;;;;;;;1.33;1.33;;;-1.00;99.90;;;;;;5031183;28;20194;-72
2021/01/20 02:58:22;;;;;;;0.85;0.85;;;-0.90;99.90;;;;;;5031013;28;20197;-73
2021/01/20 03:00:51;;;;;;;1.27;1.27;;;-0.90;99.90;;;;;;5031162;28;20166;-73
2021/01/20 03:03:19;;;;;;;0.50;0.50;;;-1.00;99.90;;;;;;5031065;28;20158;-73
2021/01/20 03:05:46;;;;;;;0.40;0.40;;;-1.00;99.90;;;;;;5030971;28;20193;-72
2021/01/20 03:08:13;;;;;;;2.70;2.58;;;-1.00;99.90;;;;;;5030925;28;20197;-73
2021/01/20 03:10:39;;;;;;;0.52;0.52;;;-1.10;99.90;;;;;;5031132;28;20201;-72
2021/01/20 03:13:06;;;;;;;0.43;0.43;;;-1.00;99.90;;;;;;5031642;28;20181;-72
2021/01/20 03:15:37;;;;;;;1.02;0.75;;;-1.10;99.90;;;;;;5032494;28;20243;-72
2021/01/20 03:18:04;;;;;;;1.45;1.45;;;-1.00;99.90;;;;;;5031851;28;20186;-72
2021/01/20 03:20:30;;;;;;;0.30;0.30;;;-1.00;99.90;;;;;;5032797;28;20162;-73
2021/01/20 03:22:56;;;;;;;2.47;2.33;;;-1.10;99.90;;;;;;5032711;28;20162;-72
2021/01/20 03:25:22;;;;;;;0.47;0.47;;;-1.10;99.90;;;;;;5032289;28;20200;-73
2021/01/20 03:27:49;;;;;;;0.32;0.32;;;-1.10;99.90;;;;;;5032127;28;20214;-73
2021/01/20 03:30:15;;;;;;;1.85;1.75;;;-1.20;99.90;;;;;;5032182;28;20166;-74
2021/01/20 03:32:41;;;;;;;1.13;1.13;;;-1.20;99.90;;;;;;5030459;28;20225;-73
2021/01/20 03:35:08;;;;;;;0.28;0.28;;;-1.10;99.90;;;;;;5030563;28;20198;-74
2021/01/20 03:37:34;;;;;;;3.03;1.65;;;-1.00;99.90;;;;;;5029136;28;20201;-74
2021/01/20 03:39:59;;;;;;;1.60;1.50;;;-0.80;99.90;;;;;;5029342;28;20197;-74
2021/01/20 03:42:25;;;;;;;0.30;0.30;;;-0.80;99.90;;;;;;5030213;28;20225;-74
2021/01/20 03:44:51;;;;;;;0.20;0.20;;;-0.80;99.90;;;;;;5030455;28;20206;-72
2021/01/20 03:47:17;;;;;;;1.13;1.13;;;-1.00;99.90;;;;;;5029000;28;20174;-73
2021/01/20 03:49:43;;;;;;;0.20;0.20;;;-1.10;99.90;;;;;;5030349;28;20622;-73
2021/01/20 03:52:09;;;;;;;0.60;0.60;;;-1.20;99.90;;;;;;5030663;28;20155;-73
2021/01/20 03:54:35;;;;;;;2.83;2.67;;;-1.30;99.90;;;;;;5029649;28;20300;-74
2021/01/20 03:57:03;;;;;;;0.35;0.35;;;-1.30;99.90;;;;;;5030111;28;20214;-71
2021/01/20 03:59:30;;;;;;;1.15;1.13;;;-1.40;99.90;;;;;;5029914;28;20296;-71
2021/01/20 04:01:58;;;;;;;0.32;0.32;;;-1.50;99.90;;;;;;5029033;28;20225;-71
2021/01/20 04:04:24;;;;;;;0.68;0.68;;;-1.50;99.90;;;;;;5029985;28;20177;-72
2021/01/20 04:06:50;;;;;;;0.30;0.30;;;-1.50;99.90;;;;;;5030164;28;20166;-73
2021/01/20 04:09:16;;;;;;;0.28;0.28;;;-1.60;99.90;;;;;;5030109;28;20245;-72
2021/01/20 04:11:42;;;;;;;1.55;1.48;;;-1.60;99.90;;;;;;5030049;28;20177;-72
2021/01/20 04:14:08;;;;;;;0.63;0.63;;;-1.50;99.90;;;;;;5030531;28;20249;-73
2021/01/20 04:16:34;;;;;;;0.50;0.50;;;-1.60;99.90;;;;;;5029054;28;20232;-73
2021/01/20 04:19:02;;;;;;;0.55;0.55;;;-1.70;99.90;;;;;;5030370;28;20158;-73
2021/01/20 04:21:30;;;;;;;0.20;0.20;;;-1.80;99.90;;;;;;5030082;28;20162;-73
2021/01/20 04:23:55;;;;;;;0.35;0.35;;;-1.90;99.90;;;;;;5029779;28;20158;-72
2021/01/20 04:26:21;;;;;;;0.90;0.90;;;-1.90;99.90;;;;;;5029594;28;20201;-73
2021/01/20 04:28:48;;;;;;;3.13;1.55;;;-1.90;99.90;;;;;;5029602;28;20177;-73
2021/01/20 04:31:14;;;;;;;1.17;1.17;;;-1.90;99.90;;;;;;5028800;28;20193;-74
2021/01/20 04:33:39;;;;;;;0.52;0.52;;;-1.90;99.90;;;;;;5028186;28;20178;-72
2021/01/20 04:36:06;;;;;;;3.25;2.95;;;-1.80;99.90;;;;;;5029511;28;20249;-73
2021/01/20 04:38:33;;;;;;;1.23;1.08;;;-1.80;99.90;;;;;;5029511;28;20304;-72
2021/01/20 04:41:00;;;;;;;0.10;0.10;;;-1.90;99.90;;;;;;5028031;28;20166;-72
2021/01/20 04:43:26;;;;;;;0.45;0.45;;;-1.70;99.90;;;;;;5029180;28;20222;-72
2021/01/20 04:45:52;;;;;;;1.10;1.10;;;-1.60;99.90;;;;;;5029250;28;20238;-72
2021/01/20 04:48:19;;;;;;;0.93;0.93;;;-1.70;99.90;;;;;;5029275;28;20189;-73
2021/01/20 04:50:49;;;;;;;0.60;0.60;;;-1.80;99.90;;;;;;5029143;28;20173;-74
2021/01/20 04:53:18;;;;;;;0.30;0.30;;;-1.70;99.90;;;;;;5028986;28;20489;-73
2021/01/20 04:55:45;;;;;;;1.10;0.50;;;-1.80;99.90;;;;;;5029198;28;20218;-73
2021/01/20 04:58:12;;;;;;;0.52;0.52;;;-1.70;99.90;;;;;;5029038;28;20194;-74
2021/01/20 05:00:39;;;;;;;0.60;0.60;;;-1.40;99.90;;;;;;5029022;28;20158;-74
2021/01/20 05:03:07;;;;;;;0.52;0.52;;;-1.40;99.90;;;;;;5027765;28;20260;-74
2021/01/20 05:05:34;;;;;;;0.52;0.52;;;-1.50;99.90;;;;;;5029086;28;20186;-74
2021/01/20 05:08:01;;;;;;;0.50;0.50;;;-1.40;99.90;;;;;;5028890;28;20236;-74
2021/01/20 05:10:27;;;;;;;0.73;0.73;;;-1.50;99.90;;;;;;5028431;28;20158;-72
2021/01/20 05:12:53;;;;;;;2.40;0.73;;;-1.70;99.90;;;;;;5027634;28;20188;-72
2021/01/20 05:15:32;;;;;;;0.20;0.20;;;-1.80;99.90;;;;;;5027028;28;20392;-73
2021/01/20 05:17:59;;;;;;;0.30;0.30;;;-2.00;99.90;;;;;;5027091;28;20343;-74
2021/01/20 05:20:27;;;;;;;0.50;0.50;;;-2.20;99.90;;;;;;5028566;28;20174;-73
2021/01/20 05:23:01;;;;;;;1.10;1.10;;;-2.20;99.90;;;;;;5028223;28;20158;-72
2021/01/20 05:25:49;;;;;;;0.68;0.68;;;-2.30;99.90;;;;;;5028393;28;20209;-73
2021/01/20 05:28:23;;;;;;;0.85;0.85;;;-2.40;99.90;;;;;;5028221;28;20192;-72
2021/01/20 05:30:54;;;;;;;0.17;0.17;;;-2.40;99.90;;;;;;5027853;28;20223;-72
2021/01/20 05:33:23;;;;;;;0.20;0.20;;;-2.50;99.90;;;;;;5028196;28;20162;-72
2021/01/20 05:36:04;;;;;;;0.17;0.17;;;-2.50;99.90;;;;;;5028058;28;20217;-72
2021/01/20 05:38:50;;;;;;;0.20;0.20;;;-2.50;99.90;;;;;;5028212;28;20240;-71
2021/01/20 05:41:27;;;;;;;0.50;0.50;;;-2.40;99.90;;;;;;5027941;28;20178;-71
2021/01/20 05:44:08;;;;;;;0.20;0.20;;;-2.50;99.90;;;;;;5028183;28;20201;-71
2021/01/20 05:46:44;;;;;;;0.65;0.65;;;-2.30;99.90;;;;;;5028077;28;20670;-73
2021/01/20 05:49:28;;;;;;;0.20;0.20;;;-2.30;99.90;;;;;;5028060;28;20625;-73
2021/01/20 05:51:55;;;;;;;0.85;0.85;;;-2.20;99.90;;;;;;5028169;28;20225;-73
2021/01/20 05:54:38;;;;;;;1.00;1.00;;;-2.10;99.90;;;;;;5026405;28;20174;-73
2021/01/20 05:57:20;;;;;;;0.10;0.10;;;-2.00;99.90;;;;;;5026502;28;20201;-72
2021/01/20 05:59:48;;;;;;;0.20;0.20;;;-1.90;99.90;;;;;;5028062;28;20182;-73
2021/01/20 06:02:16;;;;;;;0.10;0.10;;;-1.70;99.90;;;;;;5027922;28;20159;-72
2021/01/20 06:04:42;;;;;;;0.22;0.22;;;-1.60;99.90;;;;;;5027856;28;20214;-73
2021/01/20 06:07:14;;;;;;;4.60;1.95;;;-1.50;99.90;;;;;;5026494;28;20192;-73
2021/01/20 06:09:44;;;;;;;0.10;0.10;;;-1.40;99.90;;;;;;5027930;28;20239;-73
2021/01/20 06:12:12;;;;;;;0.15;0.15;;;-1.20;99.90;;;;;;5028034;28;20166;-74
2021/01/20 06:14:39;;;;;;;0.20;0.20;;;-1.20;99.90;;;;;;5027992;28;20198;-73
2021/01/20 06:17:19;;;;;;;0.20;0.20;;;-1.20;99.90;;;;;;5026330;28;20208;-74
2021/01/20 06:19:50;;;;;;;2.65;1.75;;;-1.20;99.90;;;;;;5027856;28;20158;-73
2021/01/20 06:22:18;;;;;;;0.10;0.10;;;-1.30;99.90;;;;;;5027746;28;20170;-74
2021/01/20 06:25:10;;;;;;;1.13;0.90;;;-1.40;99.90;;;;;;5026498;28;20675;-74
2021/01/20 06:27:44;;;;;;;0.20;0.20;;;-1.50;99.90;;;;;;5027852;28;20201;-74
2021/01/20 06:30:23;;;;;;;1.35;1.30;;;-1.50;99.90;;;;;;5027616;28;20162;-72
2021/01/20 06:32:50;;;;;;;0.30;0.30;;;-1.50;99.90;;;;;;5027897;28;20196;-72
2021/01/20 06:35:17;;;;;;;0.50;0.50;;;-1.50;99.90;;;;;;5026535;28;20201;-73
2021/01/20 06:37:45;;;;;;;0.40;0.40;;;-1.50;99.90;;;;;;5027814;28;20200;-73
2021/01/20 06:40:23;;;;;;;0.32;0.32;;;-1.50;99.90;;;;;;5027763;28;20177;-73
2021/01/20 06:42:51;;;;;;;0.20;0.20;;;-1.50;99.90;;;;;;5027488;28;20221;-73
2021/01/20 06:45:25;;;;;;;0.20;0.20;;;-1.60;99.90;;;;;;5027607;28;20186;-73
2021/01/20 06:48:00;;;;;;;0.80;0.80;;;-1.60;99.90;;;;;;5027706;28;20631;-74
2021/01/20 06:50:30;;;;;;;0.13;0.13;;;-1.50;99.90;;;;;;5027753;28;20538;-72
2021/01/20 06:53:03;;;;;;;0.10;0.10;;;-1.20;99.90;;;;;;5027419;28;20162;-73
2021/01/20 06:55:39;;;;;;;0.20;0.20;;;-1.10;99.90;;;;;;5031178;28;20206;-72
2021/01/20 06:58:30;;;;;;;0.10;0.10;;;-0.90;99.90;;;;;;5031000;28;20280;-73
2021/01/20 07:00:59;;;;;;;1.92;1.85;;;-0.80;99.90;;;;;;5029876;28;20216;-72
2021/01/20 07:03:54;;;;;;;0.20;0.20;;;-0.70;99.90;;;;;;5030926;28;20166;-72
2021/01/20 07:06:35;;;;;;;0.40;0.40;;;-0.80;99.90;;;;;;5030943;28;20193;-72
2021/01/20 07:09:11;;;;;;;0.80;0.38;;;-1.00;99.90;;;;;;5030941;28;20201;-73
2021/01/20 07:11:55;;;;;;;0.30;0.30;;;-1.10;99.90;;;;;;5030936;28;20154;-73
2021/01/20 07:14:28;;;;;;;0.45;0.45;;;-1.30;99.90;;;;;;5030587;28;20162;-71
2021/01/20 07:16:58;;;;;;;0.20;0.20;;;-1.30;99.90;;;;;;5030685;28;20180;-72
2021/01/20 07:19:28;;;;;;;0.32;0.32;;;-1.20;99.90;;;;;;5031046;28;20173;-72
2021/01/20 07:21:54;;;;;;;1.40;1.30;;;-1.00;99.90;;;;;;5029808;28;20169;-72
2021/01/20 07:24:21;;;;;;;0.82;0.82;;;-0.70;99.90;;;;;;5028944;28;20237;-71
2021/01/20 07:26:47;;;;;;;0.43;0.43;;;-0.40;99.90;;;;;;5029404;28;20166;-72
2021/01/20 07:29:23;;;;;;;0.30;0.30;;;-0.30;99.90;;;;;;5028369;28;20293;-73
2021/01/20 07:31:50;;;;;;;0.15;0.15;;;-0.20;99.90;;;;;;5030490;28;20164;-72
2021/01/20 07:34:17;;;;;;;0.30;0.30;;;-0.10;99.90;;;;;;5030596;28;20181;-72
2021/01/20 07:36:44;;;;;;;0.20;0.20;;;0.00;99.90;;;;;;5030370;28;20281;-72
2021/01/20 07:39:23;;;;;;;1.48;1.20;;;0.00;99.90;;;;;;5030509;28;20647;-73
2021/01/20 07:41:56;;;;;;;1.50;1.42;;;0.10;99.90;;;;;;5030276;28;20218;-72
2021/01/20 07:44:23;;;;;;;1.20;1.17;;;0.20;99.90;;;;;;5030191;28;20238;-73
2021/01/20 07:46:58;;;;;;;1.08;1.08;;;0.20;99.90;;;;;;5030374;28;20186;-73
2021/01/20 07:49:24;;;;;;;0.45;0.45;;;0.30;99.90;;;;;;5030271;28;20615;-71
2021/01/20 07:52:07;;;;;;;0.20;0.20;;;0.30;99.90;;;;;;5030084;28;20186;-72
2021/01/20 07:54:48;;;;;;;1.30;1.30;;;0.30;99.90;;;;;;5030134;28;20158;-73
2021/01/20 07:57:21;;;;;;;0.20;0.20;;;0.20;99.90;;;;;;5030066;28;20188;-74
2021/01/20 08:00:02;;;;;;;1.45;1.00;;;0.10;99.90;;;;;;5030396;28;20218;-73
2021/01/20 08:02:28;;;;;;;0.30;0.30;;;0.10;99.90;;;;;;5029967;28;20154;-73
2021/01/20 08:05:01;;;;;;;0.20;0.20;;;0.10;99.90;;;;;;5030001;28;20213;-73
2021/01/20 08:07:27;;;;;;;0.20;0.20;;;0.20;99.90;;;;;;5029929;28;20185;-74
2021/01/20 08:09:53;;;;;;;4.03;2.65;;;0.40;99.90;;;;;;5030034;28;20166;-73
2021/01/20 08:12:30;;;;;;;1.05;1.00;;;0.50;99.90;;;;;;5029802;28;20169;-71
2021/01/20 08:14:57;;;;;;;1.58;1.48;;;0.60;99.90;;;;;;5028597;28;20639;-74
2021/01/20 08:17:23;;;;;;;0.17;0.17;;;0.90;99.90;;;;;;5029688;28;20217;-73
2021/01/20 08:19:49;;;;;;;2.53;2.20;;;1.10;99.90;;;;;;5028367;28;20181;-73
2021/01/20 08:22:16;;;;;;;0.20;0.20;;;1.20;99.90;;;;;;5029825;28;20303;-73
2021/01/20 08:24:45;;;;;;;1.02;0.98;;;1.50;99.90;;;;;;5029375;28;20189;-72
2021/01/20 08:27:12;;;;;;;0.95;0.95;;;2.00;99.90;;;;;;5028393;28;20197;-72
2021/01/20 08:29:58;;;;;;;0.47;0.47;;;2.50;99.90;;;;;;5040245;28;20188;-73
2021/01/20 08:32:25;;;;;;;0.20;0.20;;;3.70;99.90;;;;;;5029132;28;20194;-73
2021/01/20 08:34:52;;;;;;;0.95;0.95;;;4.80;99.90;;;;;;5008724;28;20171;-73
2021/01/20 08:37:41;;;;;;;1.65;1.58;;;5.80;99.90;;;;;;5042224;28;20201;-73
2021/01/20 08:40:14;;;;;;;2.05;0.75;;;7.00;99.90;;;;;;5027518;28;20174;-73
2021/01/20 08:42:41;;;;;;;1.15;1.15;;;6.90;99.90;;;;;;5029015;28;20222;-73
2021/01/20 08:45:21;;;;;;;0.20;0.20;;;7.20;99.90;;;;;;5040225;28;20216;-73
2021/01/20 08:48:05;;;;;;;0.88;0.88;;;8.40;99.90;;;;;;5048994;28;20161;-74
2021/01/20 08:50:42;;;;;;;0.20;0.20;;;9.20;99.90;;;;;;5049166;28;20184;-74
2021/01/20 08:53:11;;;;;;;1.75;1.65;;;9.90;99.90;;;;;;5048822;28;20225;-72
2021/01/20 08:55:40;;;;;;;1.17;1.17;;;11.00;99.90;;;;;;5041559;28;20174;-73
2021/01/20 08:58:19;;;;;;;0.50;0.50;;;11.50;99.90;;;;;;5028971;28;20216;-73
2021/01/20 09:00:51;;;;;;;0.35;0.35;;;11.60;99.90;;;;;;5029137;28;20162;-72
2021/01/20 09:03:18;;;;;;;0.73;0.70;;;12.30;99.90;;;;;;5008192;28;20170;-73
2021/01/20 09:05:48;;;;;;;1.25;1.25;;;11.90;99.90;;;;;;5009450;28;20166;-72
2021/01/20 09:08:15;;;;;;;0.70;0.65;;;12.40;99.90;;;;;;5009441;28;20254;-72
2021/01/20 09:10:45;;;;;;;0.77;0.77;;;12.50;99.90;;;;;;5009345;28;20182;-72
2021/01/20 09:13:12;;;;;;;0.68;0.68;;;14.30;99.90;;;;;;5037277;28;20188;-72
2021/01/20 09:15:38;;;;;;;1.73;0.90;;;15.40;99.90;;;;;;5039823;28;20173;-72
2021/01/20 09:18:06;;;;;;;1.48;1.15;;;16.20;99.90;;;;;;5043509;28;20216;-72
2021/01/20 09:20:34;;;;;;;0.63;0.63;;;16.10;99.90;;;;;;5041229;28;20165;-72
2021/01/20 09:23:02;;;;;;;0.85;0.80;;;16.10;99.90;;;;;;5046917;28;20187;-72
2021/01/20 09:25:28;;;;;;;1.10;1.10;;;15.70;99.90;;;;;;5048322;28;20161;-72
2021/01/20 09:27:54;;;;;;;9.52;1.13;;;16.10;99.90;;;;;;5044937;28;20216;-72
2021/01/20 09:30:21;;;;;;;1.08;1.08;;;16.80;99.90;;;;;;5043481;28;20185;-72
2021/01/20 09:32:47;;;;;;;2.03;1.83;;;16.20;99.90;;;;;;5027153;28;20202;-71
2021/01/20 09:35:14;;;;;;;1.65;1.52;;;15.60;99.90;;;;;;5030165;28;20240;-72
2021/01/20 09:37:42;;;;;;;1.30;1.20;;;15.70;99.90;;;;;;5046780;28;20192;-72
2021/01/20 09:40:10;;;;;;;0.43;0.40;;;15.00;99.90;;;;;;5048076;28;20240;-72
2021/01/20 09:42:37;;;;;;;0.70;0.70;;;14.60;99.90;;;;;;5047564;28;20594;-72
2021/01/20 09:45:05;;;;;;;1.75;1.55;;;14.90;99.90;;;;;;5043031;28;20170;-72
2021/01/20 09:47:31;;;;;;;2.63;1.20;;;14.80;99.90;;;;;;5043448;28;20185;-72
2021/01/20 09:49:57;;;;;;;1.20;1.20;;;15.50;99.90;;;;;;5028129;28;20196;-72
2021/01/20 09:52:25;;;;;;;0.70;0.70;;;15.80;99.90;;;;;;5028036;28;20252;-73
2021/01/20 09:54:55;;;;;;;39.45;1.48;;;16.50;99.90;;;;;;5027923;28;20173;-72
2021/01/20 09:57:21;;;;;;;0.93;0.93;;;16.70;99.90;;;;;;5027903;28;20228;-72
2021/01/20 09:59:49;;;;;;;0.95;0.65;;;16.50;99.90;;;;;;5026519;28;20185;-72
2021/01/20 10:02:15;;;;;;;1.15;0.70;;;15.70;99.90;;;;;;5042980;28;20193;-73
2021/01/20 10:04:41;;;;;;;0.40;0.40;;;15.40;99.90;;;;;;5043107;28;20189;-73
2021/01/20 10:07:08;;;;;;;2.53;1.42;;;15.00;99.90;;;;;;5027790;28;20162;-73
2021/01/20 10:09:35;;;;;;;26.10;1.65;;;13.60;99.90;;;;;;5027837;28;20161;-72
2021/01/20 10:12:01;;;;;;;1.80;1.55;;;13.20;99.90;;;;;;5026076;28;20197;-73
2021/01/20 10:14:27;;;;;;;0.10;0.10;;;12.80;99.90;;;;;;5027923;28;20194;-72
2021/01/20 10:16:53;;;;;;;1.10;1.05;;;12.40;99.90;;;;;;5013020;28;20186;-72
2021/01/20 10:19:19;;;;;;;38.83;1.23;;;12.50;99.90;;;;;;5012309;28;20165;-72
2021/01/20 10:21:45;;;;;;;32.53;2.95;;;12.50;99.90;;;;;;5027774;28;20197;-73
2021/01/20 10:24:11;;;;;;;2.20;1.58;;;12.80;99.90;;;;;;5027792;28;20198;-72
2021/01/20 10:26:37;;;;;;;0.50;0.50;;;13.10;99.90;;;;;;5027648;28;20158;-73
2021/01/20 10:29:04;;;;;;;0.17;0.17;;;13.10;99.90;;;;;;5029547;28;20166;-72
2021/01/20 10:31:32;;;;;;;1.10;0.98;;;13.60;99.90;;;;;;5031342;28;20209;-73
2021/01/20 10:33:59;;;;;;;0.30;0.30;;;13.90;99.90;;;;;;5030189;28;20202;-73
2021/01/20 10:36:26;;;;;;;0.80;0.70;;;14.30;99.90;;;;;;5030152;28;20178;-73
2021/01/20 10:38:53;;;;;;;9.95;3.75;;;15.30;99.90;;;;;;5031401;28;20794;-74
2021/01/20 10:41:21;;;;;;;1.05;0.93;;;15.20;99.90;;;;;;5031537;28;20236;-73
2021/01/20 10:43:48;;;;;;;4.88;2.15;;;14.80;99.90;;;;;;5031515;28;20170;-73
2021/01/20 10:46:15;;;;;;;5.00;3.13;;;14.50;99.90;;;;;;5031261;28;20162;-73
2021/01/20 10:48:41;;;;;;;2.17;1.98;;;14.00;99.90;;;;;;5030794;28;20178;-74
2021/01/20 10:51:10;;;;;;;0.50;0.50;;;13.60;99.90;;;;;;5030368;28;20173;-73
2021/01/20 10:53:40;;;;;;;0.85;0.85;;;13.60;99.90;;;;;;5029139;28;20237;-73
2021/01/20 10:56:08;;;;;;;0.68;0.68;;;13.80;99.90;;;;;;5029706;28;20177;-74
2021/01/20 10:58:35;;;;;;;0.52;0.45;;;14.50;99.90;;;;;;5030948;28;20272;-74
2021/01/20 11:01:03;;;;;;;1.35;1.35;;;15.20;99.90;;;;;;5031233;28;20197;-74
2021/01/20 11:03:29;;;;;;;0.85;0.85;;;15.20;99.90;;;;;;5029620;28;20189;-73
2021/01/20 11:05:55;;;;;;;0.28;0.28;;;15.00;99.90;;;;;;5046210;28;20658;-73
2021/01/20 11:08:21;;;;;;;0.63;0.63;;;14.40;99.90;;;;;;5029691;28;20189;-73
2021/01/20 11:10:47;;;;;;;2.83;1.80;;;14.80;99.90;;;;;;5030770;28;20158;-74
2021/01/20 11:13:14;;;;;;;0.85;0.80;;;14.80;99.90;;;;;;5045258;28;20177;-73
2021/01/20 11:15:47;;;;;;;0.70;0.70;;;15.40;99.90;;;;;;5030512;28;20230;-73
2021/01/20 11:18:15;;;;;;;0.80;0.68;;;15.80;99.90;;;;;;5030526;28;20190;-72
2021/01/20 11:20:46;;;;;;;1.10;1.00;;;15.50;99.90;;;;;;5030488;28;20650;-73
2021/01/20 11:23:13;;;;;;;0.60;0.60;;;16.00;99.90;;;;;;5030765;28;20162;-73
2021/01/20 11:25:52;;;;;;;0.75;0.73;;;16.10;99.90;;;;;;5030649;28;20627;-73
2021/01/20 11:28:18;;;;;;;0.93;0.93;;;15.50;99.90;;;;;;5029058;28;20253;-72
2021/01/20 11:30:44;;;;;;;2.40;1.98;;;15.20;99.90;;;;;;5030493;28;20611;-72
2021/01/20 11:33:11;;;;;;;1.35;0.40;;;15.10;99.90;;;;;;5030524;28;20162;-73
2021/01/20 11:35:38;;;;;;;1.17;1.10;;;14.70;99.90;;;;;;5025818;28;20675;-73
2021/01/20 11:38:05;;;;;;;0.77;0.77;;;14.50;99.90;;;;;;5010692;28;20628;-73
2021/01/20 11:40:33;;;;;;;0.52;0.52;;;14.30;99.90;;;;;;5010462;28;20165;-72
2021/01/20 11:42:59;;;;;;;0.88;0.73;;;14.30;99.90;;;;;;5010669;28;20221;-72
2021/01/20 11:45:33;;;;;;;3.97;1.58;;;13.90;99.90;;;;;;5025754;28;20210;-73
2021/01/20 11:47:59;;;;;;;1.98;0.68;;;14.30;99.90;;;;;;5010726;28;20155;-72
2021/01/20 11:50:26;;;;;;;2.97;2.75;;;14.40;99.90;;;;;;5026543;28;20178;-72
2021/01/20 11:52:53;;;;;;;0.38;0.38;;;14.10;99.90;;;;;;5026023;28;20256;-72
2021/01/20 11:55:20;;;;;;;0.95;0.95;;;14.30;99.90;;;;;;5010685;28;20202;-72
2021/01/20 11:57:46;;;;;;;1.02;0.98;;;14.20;99.90;;;;;;5026395;28;20198;-73
2021/01/20 12:00:13;;;;;;;8.05;1.05;;;14.70;99.90;;;;;;5011125;28;20170;-73
2021/01/20 12:02:40;;;;;;;26.27;1.70;;;15.00;99.90;;;;;;5025365;28;20174;-74
2021/01/20 12:05:08;;;;;;;10.40;2.22;;;15.40;99.90;;;;;;5010777;28;20186;-73
2021/01/20 12:07:43;;;;;;;0.60;0.60;;;15.10;99.90;;;;;;5025722;28;20177;-73
2021/01/20 12:10:13;;;;;;;0.52;0.47;;;14.40;99.90;;;;;;5010504;28;20165;-72
2021/01/20 12:12:39;;;;;;;0.70;0.70;;;14.00;99.90;;;;;;5025609;28;20273;-72
2021/01/20 12:15:06;;;;;;;1.45;1.38;;;14.40;99.90;;;;;;5025315;28;20290;-72
2021/01/20 12:17:33;;;;;;;1.10;0.75;;;14.80;99.90;;;;;;5010260;28;20207;-72
2021/01/20 12:19:59;;;;;;;6.07;1.83;;;15.10;99.90;;;;;;5010283;28;20173;-72
2021/01/20 12:22:24;;;;;;;4.55;1.90;;;15.50;99.90;;;;;;5025241;28;20175;-72
2021/01/20 12:24:50;;;;;;;1.25;1.10;;;15.40;99.90;;;;;;5021348;28;20198;-72
2021/01/20 12:27:16;;;;;;;0.70;0.70;;;15.20;99.90;;;;;;5029756;28;20169;-72
2021/01/20 12:29:42;;;;;;;2.00;1.90;;;15.00;99.90;;;;;;5029518;28;20205;-73
2021/01/20 12:32:08;;;;;;;2.03;1.88;;;15.30;99.90;;;;;;5029575;28;20196;-73
2021/01/20 12:34:34;;;;;;;9.40;1.42;;;15.00;99.90;;;;;;5044714;28;20197;-72
2021/01/20 12:37:00;;;;;;;2.03;1.08;;;14.10;99.90;;;;;;5029591;28;20549;-72
2021/01/20 12:39:26;;;;;;;1.13;1.02;;;13.80;99.90;;;;;;5029515;28;20242;-72
2021/01/20 12:41:52;;;;;;;3.92;3.03;;;13.00;99.90;;;;;;5029028;28;20225;-73
2021/01/20 12:44:18;;;;;;;2.00;1.85;;;12.10;99.90;;;;;;5044374;28;20194;-73
2021/01/20 12:46:43;;;;;;;0.57;0.57;;;11.40;99.90;;;;;;5029488;28;20170;-72
2021/01/20 12:49:09;;;;;;;0.52;0.52;;;11.00;99.90;;;;;;5029412;28;20525;-72
2021/01/20 12:51:35;;;;;;;0.70;0.70;;;10.30;99.90;;;;;;5043544;28;20181;-73
2021/01/20 12:54:02;;;;;;;0.73;0.73;;;9.90;99.90;;;;;;5029262;28;20683;-72
2021/01/20 12:56:29;;;;;;;0.73;0.73;;;9.60;99.90;;;;;;5029260;28;20204;-73